createdAt,value
2019-06-27T00:02:08.865Z,90.20
2019-06-27T00:04:38.377Z,90.87
2019-06-27T00:07:07.884Z,91.00
2019-06-27T00:09:37.285Z,90.78
2019-06-27T00:12:06.750Z,90.89
2019-06-27T00:14:36.368Z,91.05
2019-06-27T00:17:05.970Z,91.19
2019-06-27T00:19:35.439Z,91.72
2019-06-27T00:22:04.980Z,92.36
2019-06-27T00:24:34.565Z,92.61
2019-06-27T00:27:04.025Z,92.55
2019-06-27T00:29:33.536Z,92.60
2019-06-27T00:32:03.026Z,92.26
2019-06-27T00:34:32.583Z,92.33
2019-06-27T00:37:02.011Z,92.66
2019-06-27T00:39:31.532Z,92.79
2019-06-27T00:42:01.018Z,92.59
2019-06-27T00:44:30.512Z,91.96
2019-06-27T00:46:59.975Z,91.88
2019-06-27T00:49:29.492Z,91.87
2019-06-27T00:51:58.977Z,92.23
2019-06-27T00:54:28.389Z,92.19
2019-06-27T00:57:13.080Z,92.44
2019-06-27T00:59:29.083Z,92.86
2019-06-27T01:01:58.509Z,92.76
2019-06-27T01:04:28.130Z,92.91
2019-06-27T01:06:57.629Z,92.96
2019-06-27T01:09:27.030Z,92.50
2019-06-27T01:11:56.494Z,91.80
2019-06-27T01:14:26.017Z,91.64
2019-06-27T01:16:55.513Z,91.79
2019-06-27T01:19:24.997Z,92.12
2019-06-27T01:21:54.418Z,92.33
2019-06-27T01:24:23.979Z,91.87
2019-06-27T01:26:53.473Z,91.70
2019-06-27T01:29:22.884Z,91.45
2019-06-27T01:31:52.327Z,91.85
2019-06-27T01:34:21.853Z,91.96
2019-06-27T01:36:51.383Z,91.97
2019-06-27T01:39:20.887Z,91.46
2019-06-27T01:41:50.380Z,90.60
2019-06-27T01:44:37.288Z,90.53
2019-06-27T01:47:07.430Z,90.12
2019-06-27T01:49:36.946Z,89.59
2019-06-27T01:52:06.572Z,89.60
2019-06-27T01:54:35.964Z,89.78
2019-06-27T01:57:05.723Z,89.96
2019-06-27T01:59:35.280Z,90.16
2019-06-27T02:02:05.159Z,90.30
2019-06-27T02:04:34.719Z,90.60
2019-06-27T02:07:04.265Z,90.54
2019-06-27T02:09:33.784Z,90.74
2019-06-27T02:12:03.309Z,91.13
2019-06-27T02:14:32.710Z,91.40
2019-06-27T02:17:02.141Z,91.54
2019-06-27T02:19:31.646Z,91.74
2019-06-27T02:22:01.096Z,91.86
2019-06-27T02:24:30.640Z,91.91
2019-06-27T02:27:00.137Z,92.16
2019-06-27T02:29:29.557Z,92.41
2019-06-27T02:31:58.996Z,92.02
2019-06-27T02:34:28.546Z,91.84
2019-06-27T02:36:58.070Z,92.01
2019-06-27T02:39:27.485Z,91.43
2019-06-27T02:41:56.862Z,91.16
2019-06-27T02:44:26.407Z,91.23
2019-06-27T02:46:55.894Z,91.28
2019-06-27T02:49:25.434Z,91.15
2019-06-27T02:51:54.930Z,90.17
2019-06-27T02:54:24.449Z,89.54
2019-06-27T02:56:53.941Z,89.27
2019-06-27T02:59:23.341Z,88.89
2019-06-27T03:01:52.791Z,88.60
2019-06-27T03:04:22.294Z,88.47
2019-06-27T03:06:51.908Z,88.44
2019-06-27T03:09:21.311Z,88.47
2019-06-27T03:11:50.736Z,88.25
2019-06-27T03:14:20.279Z,88.66
2019-06-27T03:16:49.781Z,89.10
2019-06-27T03:19:19.204Z,89.43
2019-06-27T03:21:48.645Z,90.04
2019-06-27T03:24:18.157Z,90.11
2019-06-27T03:26:47.678Z,90.05
2019-06-27T03:29:20.174Z,90.10
2019-06-27T03:31:48.279Z,90.35
2019-06-27T03:34:18.102Z,90.70
2019-06-27T03:36:47.584Z,91.07
2019-06-27T03:39:17.055Z,91.20
2019-06-27T03:41:46.627Z,91.48
2019-06-27T03:44:16.044Z,91.43
2019-06-27T03:46:45.477Z,90.97
2019-06-27T03:49:15.000Z,90.72
2019-06-27T03:51:44.525Z,90.51
2019-06-27T03:54:13.925Z,90.51
2019-06-27T03:56:43.347Z,90.77
2019-06-27T03:59:13.969Z,90.94
2019-06-27T04:01:43.644Z,91.09
2019-06-27T04:04:13.091Z,91.14
2019-06-27T04:06:42.512Z,91.10
2019-06-27T04:09:12.026Z,90.99
2019-06-27T04:11:41.656Z,90.81
2019-06-27T04:14:11.058Z,90.81
2019-06-27T04:16:41.975Z,90.87
2019-06-27T04:19:12.752Z,91.02
2019-06-27T04:21:43.520Z,91.15
2019-06-27T04:24:14.766Z,91.27
2019-06-27T04:26:45.457Z,91.36
2019-06-27T04:29:33.052Z,91.21
2019-06-27T04:31:48.800Z,91.14
2019-06-27T04:34:20.457Z,90.88
2019-06-27T04:36:51.632Z,90.48
2019-06-27T04:39:22.434Z,90.42
2019-06-27T04:41:53.357Z,90.33
2019-06-27T04:44:24.072Z,90.31
2019-06-27T04:46:54.760Z,90.24
2019-06-27T04:49:25.624Z,89.83
2019-06-27T04:51:56.272Z,90.12
2019-06-27T04:54:26.912Z,90.25
2019-06-27T04:56:57.796Z,90.23
2019-06-27T04:59:28.426Z,90.14
2019-06-27T05:20:38.718Z,87.41
2019-06-27T05:23:08.132Z,86.90
2019-06-27T05:25:37.761Z,85.02
2019-06-27T05:28:07.473Z,84.31
2019-06-27T05:30:37.195Z,84.07
2019-06-27T05:33:06.665Z,83.52
2019-06-27T05:35:36.492Z,83.51
2019-06-27T05:38:05.914Z,81.62
2019-06-27T05:40:35.338Z,81.42
2019-06-27T05:43:05.021Z,82.13
2019-06-27T05:45:34.847Z,82.81
2019-06-27T05:48:04.401Z,83.35
2019-06-27T05:50:34.157Z,83.32
2019-06-27T05:53:03.917Z,82.90
2019-06-27T05:55:33.767Z,82.57
2019-06-27T05:58:03.405Z,82.45
2019-06-27T06:00:33.063Z,82.15
2019-06-27T06:03:02.603Z,80.53
2019-06-27T06:05:32.244Z,80.23
2019-06-27T06:08:01.960Z,79.51
2019-06-27T06:10:31.634Z,79.35
2019-06-27T06:13:01.314Z,78.26
2019-06-27T06:15:30.917Z,77.68
2019-06-27T06:18:00.540Z,78.44
2019-06-27T06:20:30.222Z,79.08
2019-06-27T06:23:00.070Z,79.11
2019-06-27T06:25:29.804Z,78.55
2019-06-27T06:27:59.477Z,75.73
2019-06-27T06:30:43.228Z,75.47
2019-06-27T06:33:00.543Z,75.41
2019-06-27T06:35:30.035Z,74.25
2019-06-27T06:37:59.566Z,72.56
2019-06-27T06:40:29.393Z,72.46
2019-06-27T06:43:00.613Z,72.01
2019-06-27T06:45:30.482Z,71.05
2019-06-27T06:47:59.927Z,71.26
2019-06-27T06:50:29.716Z,71.47
2019-06-27T06:52:59.469Z,71.01
2019-06-27T06:55:29.222Z,70.28
2019-06-27T06:57:58.808Z,70.31
2019-06-27T07:00:28.691Z,69.48
2019-06-27T07:02:58.511Z,68.00
2019-06-27T07:05:28.039Z,67.38
2019-06-27T07:07:57.555Z,68.34
2019-06-27T07:10:27.287Z,68.06
2019-06-27T07:12:57.128Z,66.76
2019-06-27T07:15:26.672Z,67.61
2019-06-27T07:17:56.455Z,68.13
2019-06-27T07:20:26.128Z,68.51
2019-06-27T07:22:55.602Z,66.40
2019-06-27T07:25:25.164Z,64.69
2019-06-27T07:27:54.857Z,64.54
2019-06-27T07:30:24.633Z,65.10
2019-06-27T07:32:54.445Z,63.72
2019-06-27T07:35:24.311Z,63.03
2019-06-27T07:37:54.116Z,62.15
2019-06-27T07:40:23.871Z,62.88
2019-06-27T07:42:53.590Z,63.11
2019-06-27T07:45:23.014Z,62.93
2019-06-27T07:47:52.808Z,61.71
2019-06-27T07:50:22.550Z,63.38
2019-06-27T07:52:52.053Z,64.14
2019-06-27T07:55:23.504Z,63.24
2019-06-27T07:57:52.949Z,62.62
2019-06-27T08:00:23.643Z,62.07
2019-06-27T08:02:53.327Z,62.83
2019-06-27T08:05:22.907Z,63.34
2019-06-27T08:07:52.328Z,63.04
2019-06-27T08:10:22.091Z,60.02
2019-06-27T08:12:51.938Z,59.53
2019-06-27T08:15:21.991Z,59.77
2019-06-27T08:17:51.675Z,61.23
2019-06-27T08:20:21.568Z,58.68
2019-06-27T08:22:51.280Z,60.28
2019-06-27T08:25:21.117Z,60.48
2019-06-27T08:27:51.001Z,59.70
2019-06-27T08:30:21.730Z,59.56
2019-06-27T08:32:51.443Z,59.01
2019-06-27T08:35:20.963Z,57.76
2019-06-27T08:37:50.555Z,57.67
2019-06-27T08:40:20.109Z,55.28
2019-06-27T08:42:49.808Z,54.86
2019-06-27T08:45:19.582Z,55.13
2019-06-27T08:47:49.394Z,56.15
2019-06-27T08:50:20.599Z,51.43
2019-06-27T08:52:50.394Z,51.95
2019-06-27T08:55:20.052Z,53.77
2019-06-27T08:57:49.766Z,55.80
2019-06-27T09:00:19.903Z,55.71
2019-06-27T09:02:49.619Z,54.79
2019-06-27T09:05:19.216Z,55.70
2019-06-27T09:07:48.805Z,53.55
2019-06-27T09:10:18.722Z,55.54
2019-06-27T09:12:48.594Z,55.42
2019-06-27T09:15:18.332Z,56.33
2019-06-27T09:17:48.143Z,52.97
2019-06-27T09:20:17.843Z,52.97
2019-06-27T09:22:47.242Z,53.04
2019-06-27T09:25:16.919Z,52.12
2019-06-27T09:27:46.786Z,52.12
2019-06-27T09:30:17.024Z,52.65
2019-06-27T09:32:46.591Z,52.65
2019-06-27T09:35:16.545Z,52.43
2019-06-27T09:37:46.336Z,52.61
2019-06-27T09:40:16.160Z,49.42
2019-06-27T09:42:46.097Z,48.79
2019-06-27T09:45:16.053Z,49.45
2019-06-27T09:47:45.905Z,50.52
2019-06-27T09:50:16.207Z,47.29
2019-06-27T09:52:45.612Z,47.54
2019-06-27T09:55:15.264Z,47.22
2019-06-27T09:57:44.651Z,46.36
2019-06-27T10:00:14.821Z,46.05
2019-06-27T10:02:44.523Z,44.10
2019-06-27T10:05:13.920Z,41.77
2019-06-27T10:07:43.412Z,39.25
2019-06-27T10:10:14.039Z,37.33
2019-06-27T10:12:43.570Z,34.33
2019-06-27T10:15:14.176Z,33.42
2019-06-27T10:17:43.582Z,30.52
2019-06-27T10:20:14.660Z,28.05
2019-06-27T10:22:44.328Z,27.39
2019-06-27T10:25:14.172Z,26.53
2019-06-27T10:27:43.885Z,22.64
2019-06-27T10:30:13.933Z,23.55
2019-06-27T10:32:57.720Z,22.99
2019-06-27T10:35:14.903Z,20.64
2019-06-27T10:37:44.541Z,20.89
2019-06-27T10:40:14.247Z,21.31
2019-06-27T10:42:43.880Z,20.90
2019-06-27T10:45:13.700Z,19.41
2019-06-27T10:47:43.423Z,18.19
2019-06-27T10:50:13.293Z,19.20
2019-06-27T10:52:42.699Z,17.51
2019-06-27T10:55:13.605Z,17.66
2019-06-27T10:57:43.317Z,16.85
2019-06-27T11:00:12.912Z,17.32
2019-06-27T11:02:42.675Z,16.83
2019-06-27T11:05:12.218Z,15.22
2019-06-27T11:07:42.300Z,16.09
2019-06-27T11:10:11.845Z,17.13
2019-06-27T11:12:44.868Z,17.96
2019-06-27T11:15:12.975Z,18.54
2019-06-27T11:17:42.366Z,17.96
2019-06-27T11:20:15.269Z,18.25
2019-06-27T11:22:44.370Z,17.93
2019-06-27T11:25:14.522Z,17.69
2019-06-27T11:27:44.364Z,17.81
2019-06-27T11:30:14.684Z,17.54
2019-06-27T11:32:44.327Z,16.58
2019-06-27T11:35:13.961Z,15.99
2019-06-27T11:37:43.614Z,16.66
2019-06-27T11:40:13.247Z,16.04
2019-06-27T11:42:42.679Z,16.34
2019-06-27T11:45:12.619Z,16.49
2019-06-27T11:47:42.395Z,17.11
2019-06-27T11:50:12.267Z,14.21
2019-06-27T11:52:42.007Z,16.62
2019-06-27T11:55:11.503Z,16.69
2019-06-27T11:57:41.199Z,18.82
2019-06-27T12:00:11.361Z,16.99
2019-06-27T12:02:40.762Z,16.14
2019-06-27T12:05:10.341Z,17.29
2019-06-27T12:07:39.938Z,17.09
2019-06-27T12:10:10.624Z,17.92
2019-06-27T12:12:40.068Z,16.75
2019-06-27T12:15:09.798Z,17.52
2019-06-27T12:17:39.839Z,17.43
2019-06-27T12:20:10.373Z,18.70
2019-06-27T12:22:39.920Z,18.55
2019-06-27T12:25:09.982Z,18.86
2019-06-27T12:27:39.802Z,20.38
2019-06-27T12:30:09.797Z,21.14
2019-06-27T12:32:51.194Z,19.63
2019-06-27T12:35:11.042Z,19.31
2019-06-27T12:37:40.456Z,20.80
2019-06-27T12:40:10.195Z,20.64
2019-06-27T12:42:39.900Z,18.07
2019-06-27T12:45:09.813Z,17.44
2019-06-27T12:47:39.473Z,20.34
2019-06-27T12:50:09.277Z,19.60
2019-06-27T12:52:39.165Z,19.86
2019-06-27T12:55:08.846Z,17.50
2019-06-27T12:57:38.507Z,16.66
2019-06-27T13:00:09.173Z,18.97
2019-06-27T13:02:39.023Z,20.11
2019-06-27T13:05:08.425Z,18.67
2019-06-27T13:07:38.138Z,19.37
2019-06-27T13:10:08.273Z,17.92
2019-06-27T13:12:38.154Z,17.22
2019-06-27T13:15:07.934Z,17.57
2019-06-27T13:17:37.319Z,17.25
2019-06-27T13:20:07.852Z,19.31
2019-06-27T13:22:37.729Z,18.42
2019-06-27T13:25:07.237Z,16.64
2019-06-27T13:27:36.910Z,17.62
2019-06-27T13:30:07.245Z,19.09
2019-06-27T13:32:36.940Z,19.51
2019-06-27T13:35:06.936Z,19.08
2019-06-27T13:37:36.272Z,17.62
2019-06-27T13:40:06.274Z,17.46
2019-06-27T13:42:38.368Z,19.24
2019-06-27T13:45:07.274Z,19.12
2019-06-27T13:47:36.983Z,15.94
2019-06-27T13:50:06.851Z,18.40
2019-06-27T13:52:36.313Z,21.24
2019-06-27T13:55:06.410Z,17.05
2019-06-27T13:57:35.819Z,17.95
2019-06-27T14:00:06.317Z,17.96
2019-06-27T14:02:35.823Z,19.09
2019-06-27T14:05:05.762Z,18.02
2019-06-27T14:07:35.588Z,18.85
2019-06-27T14:10:05.518Z,18.50
2019-06-27T14:12:34.926Z,18.80
2019-06-27T14:15:04.815Z,19.85
2019-06-27T14:17:34.680Z,23.22
2019-06-27T14:20:04.441Z,23.41
2019-06-27T14:22:34.324Z,25.13
2019-06-27T14:25:04.067Z,23.34
2019-06-27T14:27:33.670Z,24.58
2019-06-27T14:30:03.174Z,24.91
2019-06-27T14:32:32.865Z,26.48
2019-06-27T14:35:14.645Z,29.07
2019-06-27T14:37:34.140Z,27.34
2019-06-27T14:40:03.974Z,27.52
2019-06-27T14:42:33.435Z,27.91
2019-06-27T14:45:03.162Z,29.76
2019-06-27T14:47:32.861Z,29.79
2019-06-27T14:50:02.387Z,31.07
2019-06-27T14:52:34.833Z,31.64
2019-06-27T14:55:03.144Z,29.72
2019-06-27T14:57:32.541Z,31.07
2019-06-27T15:00:02.408Z,30.62
2019-06-27T15:02:31.961Z,31.14
2019-06-27T15:05:01.523Z,31.09
2019-06-27T15:07:31.384Z,29.83
2019-06-27T15:10:01.267Z,31.42
2019-06-27T15:12:30.722Z,29.96
2019-06-27T15:15:00.394Z,30.91
2019-06-27T15:17:29.938Z,32.54
2019-06-27T15:19:59.611Z,35.60
2019-06-27T15:22:31.541Z,33.90
2019-06-27T15:25:01.376Z,34.50
2019-06-27T15:27:31.033Z,32.38
2019-06-27T15:30:00.776Z,32.69
2019-06-27T15:32:30.479Z,33.70
2019-06-27T15:35:00.162Z,34.77
2019-06-27T15:37:29.820Z,35.79
2019-06-27T15:39:59.377Z,35.69
2019-06-27T15:42:29.026Z,33.07
2019-06-27T15:44:58.445Z,33.20
2019-06-27T15:47:28.388Z,33.42
2019-06-27T15:49:58.156Z,32.78
2019-06-27T15:52:27.741Z,33.21
2019-06-27T15:54:57.512Z,32.49
2019-06-27T15:57:27.284Z,31.91
2019-06-27T15:59:56.877Z,33.71
2019-06-27T16:02:26.709Z,32.70
2019-06-27T16:04:56.411Z,33.43
2019-06-27T16:07:25.986Z,34.07
2019-06-27T16:09:55.715Z,33.74
2019-06-27T16:12:26.067Z,32.43
2019-06-27T16:14:55.851Z,33.45
2019-06-27T16:17:25.247Z,34.79
2019-06-27T16:19:55.025Z,34.97
2019-06-27T16:22:24.848Z,34.31
2019-06-27T16:24:54.407Z,34.76
2019-06-27T16:27:23.856Z,37.60
2019-06-27T16:29:53.598Z,36.83
2019-06-27T16:32:23.319Z,35.79
2019-06-27T16:34:53.047Z,35.75
2019-06-27T16:37:22.467Z,38.35
2019-06-27T16:39:52.314Z,36.52
2019-06-27T16:42:21.755Z,37.32
2019-06-27T16:44:51.439Z,36.71
2019-06-27T16:47:21.300Z,37.39
2019-06-27T16:49:51.017Z,37.70
2019-06-27T16:52:20.632Z,37.58
2019-06-27T16:54:50.050Z,38.27
2019-06-27T16:57:19.862Z,38.72
2019-06-27T16:59:49.598Z,38.32
2019-06-27T17:02:19.179Z,38.65
2019-06-27T17:04:48.789Z,39.74
2019-06-27T17:07:18.561Z,39.74
2019-06-27T17:09:48.094Z,39.69
2019-06-27T17:12:17.490Z,39.53
2019-06-27T17:14:47.379Z,39.69
2019-06-27T17:17:17.067Z,40.40
2019-06-27T17:19:48.518Z,39.70
2019-06-27T17:22:18.087Z,40.84
2019-06-27T17:24:47.818Z,40.29
2019-06-27T17:27:17.490Z,40.29
2019-06-27T17:29:46.925Z,40.46
2019-06-27T17:32:16.774Z,40.56
2019-06-27T17:34:46.315Z,40.91
2019-06-27T17:37:18.565Z,40.67
2019-06-27T17:39:46.938Z,40.33
2019-06-27T17:42:16.744Z,40.95
2019-06-27T17:44:46.224Z,41.30
2019-06-27T17:47:15.931Z,40.53
2019-06-27T17:49:49.008Z,40.93
2019-06-27T17:52:17.071Z,40.41
2019-06-27T17:54:46.866Z,40.62
2019-06-27T17:57:16.313Z,40.68
2019-06-27T17:59:45.907Z,41.16
2019-06-27T18:02:15.561Z,40.98
2019-06-27T18:04:45.235Z,41.09
2019-06-27T18:07:15.325Z,41.37
2019-06-27T18:09:44.834Z,41.56
2019-06-27T18:12:14.646Z,41.13
2019-06-27T18:14:44.065Z,41.36
2019-06-27T18:17:13.610Z,41.87
2019-06-27T18:19:43.531Z,41.76
2019-06-27T18:22:13.229Z,42.06
2019-06-27T18:24:43.056Z,41.67
2019-06-27T18:27:12.560Z,41.65
2019-06-27T18:29:42.111Z,42.43
2019-06-27T18:32:11.811Z,42.55
2019-06-27T18:34:41.492Z,42.81
2019-06-27T18:37:11.301Z,42.97
2019-06-27T18:39:40.795Z,45.06
2019-06-27T18:42:10.586Z,44.53
2019-06-27T18:44:40.405Z,43.92
2019-06-27T18:47:10.245Z,45.68
2019-06-27T18:49:40.079Z,43.88
2019-06-27T18:52:10.038Z,43.45
2019-06-27T18:54:39.466Z,43.66
2019-06-27T18:57:08.976Z,43.78
2019-06-27T18:59:38.496Z,44.25
2019-06-27T19:02:08.102Z,45.61
2019-06-27T19:04:37.882Z,44.51
2019-06-27T19:07:07.642Z,43.81
2019-06-27T19:09:37.411Z,43.65
2019-06-27T19:12:07.094Z,43.42
2019-06-27T19:14:37.021Z,43.61
2019-06-27T19:17:06.827Z,43.39
2019-06-27T19:19:37.910Z,43.65
2019-06-27T19:22:26.649Z,43.62
2019-06-27T19:25:21.481Z,43.82
2019-06-27T19:27:51.125Z,43.34
2019-06-27T19:30:21.003Z,44.04
2019-06-27T19:32:50.781Z,43.97
2019-06-27T19:35:20.662Z,43.45
2019-06-27T19:38:01.511Z,43.78
2019-06-27T19:40:21.632Z,43.96
2019-06-27T19:42:51.485Z,44.17
2019-06-27T19:45:21.452Z,43.53
2019-06-27T19:47:50.847Z,43.83
2019-06-27T19:50:20.665Z,44.72
2019-06-27T19:52:50.213Z,44.28
2019-06-27T19:55:20.136Z,44.59
2019-06-27T19:57:49.753Z,44.37
2019-06-27T20:00:20.020Z,44.43
2019-06-27T20:02:49.788Z,45.03
2019-06-27T20:05:19.431Z,46.16
2019-06-27T20:07:49.253Z,45.99
2019-06-27T20:10:19.176Z,45.97
2019-06-27T20:12:48.846Z,46.21
2019-06-27T20:15:18.824Z,46.03
2019-06-27T20:17:48.804Z,47.11
2019-06-27T20:20:18.809Z,48.36
2019-06-27T20:22:48.482Z,51.06
2019-06-27T20:25:18.478Z,51.64
2019-06-27T20:27:48.249Z,51.80
2019-06-27T20:30:19.644Z,52.76
2019-06-27T20:32:49.175Z,51.33
2019-06-27T20:35:18.600Z,53.61
2019-06-27T20:37:48.499Z,51.09
2019-06-27T20:40:18.674Z,49.52
2019-06-27T20:42:48.486Z,49.38
2019-06-27T20:45:18.451Z,49.04
2019-06-27T20:47:49.795Z,48.94
2019-06-27T20:50:19.789Z,49.67
2019-06-27T20:52:49.883Z,50.97
2019-06-27T20:55:19.745Z,49.83
2019-06-27T20:57:49.241Z,49.39
2019-06-27T21:00:18.867Z,49.25
2019-06-27T21:02:48.342Z,49.22
2019-06-27T21:05:17.838Z,49.22
2019-06-27T21:07:47.329Z,49.05
2019-06-27T21:10:17.527Z,48.99
2019-06-27T21:12:47.226Z,49.29
2019-06-27T21:15:17.135Z,49.74
2019-06-27T21:17:47.255Z,49.77
2019-06-27T21:20:17.225Z,49.86
2019-06-27T21:22:46.826Z,50.06
2019-06-27T21:25:16.357Z,50.05
2019-06-27T21:27:45.994Z,50.01
2019-06-27T21:30:16.314Z,50.27
2019-06-27T21:32:48.285Z,50.34
2019-06-27T21:35:17.022Z,50.31
2019-06-27T21:37:46.498Z,50.62
2019-06-27T21:40:17.502Z,50.41
2019-06-27T21:42:47.314Z,50.35
2019-06-27T21:45:16.796Z,50.32
2019-06-27T21:47:46.446Z,50.90
2019-06-27T21:50:16.116Z,50.57
2019-06-27T21:52:45.686Z,50.38
2019-06-27T21:55:15.641Z,50.44
2019-06-27T21:57:45.102Z,50.43
2019-06-27T22:00:14.819Z,50.33
2019-06-27T22:02:44.654Z,50.25
2019-06-27T22:05:14.663Z,50.27
2019-06-27T22:07:44.406Z,50.22
2019-06-27T22:10:14.170Z,50.26
2019-06-27T22:12:43.891Z,50.21
2019-06-27T22:15:14.018Z,50.16
2019-06-27T22:17:43.384Z,50.20
2019-06-27T22:20:15.438Z,50.13
2019-06-27T22:22:45.286Z,50.20
2019-06-27T22:25:15.812Z,49.97
2019-06-27T22:27:45.211Z,49.83
2019-06-27T22:30:15.485Z,49.87
2019-06-27T22:32:45.276Z,49.79
2019-06-27T22:35:15.065Z,50.06
2019-06-27T22:38:02.067Z,49.54
2019-06-27T22:40:49.471Z,49.39
2019-06-27T22:43:36.940Z,49.51
2019-06-27T22:46:24.137Z,49.46
2019-06-27T22:48:53.006Z,49.65
2019-06-27T22:51:31.993Z,49.54
2019-06-27T22:54:02.907Z,49.71
2019-06-27T22:56:32.386Z,49.90
2019-06-27T22:59:02.197Z,49.84
2019-06-27T23:01:31.827Z,49.88
2019-06-27T23:04:01.297Z,49.73
2019-06-27T23:06:30.942Z,49.76
2019-06-27T23:09:00.452Z,50.09
2019-06-27T23:11:30.017Z,50.28
2019-06-27T23:13:59.630Z,50.58
2019-06-27T23:16:29.289Z,50.48
2019-06-27T23:18:59.009Z,50.80
2019-06-27T23:21:28.558Z,51.07
2019-06-27T23:23:58.371Z,51.01
2019-06-27T23:26:27.938Z,51.70
2019-06-27T23:28:57.453Z,51.94
2019-06-27T23:31:27.126Z,52.03
2019-06-27T23:33:56.906Z,52.31
2019-06-27T23:36:26.522Z,52.35
2019-06-27T23:38:56.097Z,52.63
2019-06-27T23:41:25.670Z,52.82
2019-06-27T23:43:55.515Z,53.01
2019-06-27T23:46:43.741Z,53.07
2019-06-27T23:49:13.405Z,53.14
2019-06-27T23:51:43.143Z,53.12
2019-06-27T23:54:12.619Z,52.85
2019-06-27T23:56:42.203Z,53.11
2019-06-27T23:59:11.782Z,53.06
